Time;durP1;ratioP1;P1;durP2;ratioP2;P2;SDS_P1;SDS_P2;PMS_P1;PMS_P2;Temp;Humidity;BMP_temperature;BMP_pressure;BME280_temperature;BME280_humidity;BME280_pressure;Samples;Min_cycle;Max_cycle;Signal;HPM_P1;HPM_P2
2023/04/13 00:00:42;;;;;;;1999.90;999.90;;;7.10;99.90;;;;;;5074996;28;20041;-74
2023/04/13 00:03:11;;;;;;;1999.90;999.90;;;7.10;99.90;;;;;;5075189;28;20048;-74
2023/04/13 00:05:40;;;;;;;1999.90;999.90;;;7.10;99.90;;;;;;5074844;28;20033;-74
2023/04/13 00:08:06;;;;;;;1999.90;999.90;;;7.20;99.90;;;;;;5074005;28;20040;-74
2023/04/13 00:10:36;;;;;;;1999.90;999.90;;;7.20;99.90;;;;;;5056458;28;20037;-74
2023/04/13 00:13:05;;;;;;;1999.90;999.90;;;7.20;99.90;;;;;;5074812;28;20032;-74
2023/04/13 00:15:33;;;;;;;1999.90;999.90;;;7.20;99.90;;;;;;5056468;28;20174;-74
2023/04/13 00:17:59;;;;;;;1999.90;999.90;;;7.30;99.90;;;;;;5074949;28;20092;-74
2023/04/13 00:20:25;;;;;;;1999.90;999.90;;;7.30;99.90;;;;;;5075047;28;20068;-74
2023/04/13 00:22:51;;;;;;;1999.90;999.90;;;7.20;99.90;;;;;;5074666;28;20120;-74
2023/04/13 00:25:16;;;;;;;1999.90;999.90;;;7.20;99.90;;;;;;5074528;28;20036;-74
2023/04/13 00:27:42;;;;;;;1999.90;999.90;;;7.20;99.90;;;;;;5074762;28;20079;-74
2023/04/13 00:30:10;;;;;;;1999.90;999.90;;;7.20;99.90;;;;;;5074825;28;20545;-74
2023/04/13 00:32:36;;;;;;;1999.90;999.90;;;7.20;99.90;;;;;;5074359;28;20040;-74
2023/04/13 00:35:02;;;;;;;1999.90;999.90;;;7.20;99.90;;;;;;5074507;28;20036;-74
2023/04/13 00:37:29;;;;;;;1999.90;999.90;;;7.20;99.90;;;;;;5056324;28;20033;-74
2023/04/13 00:39:54;;;;;;;1999.90;999.90;;;7.10;99.90;;;;;;5074485;28;20809;-74
2023/04/13 00:42:20;;;;;;;1999.90;999.90;;;7.00;99.90;;;;;;5074369;28;20033;-74
2023/04/13 00:44:46;;;;;;;1999.90;999.90;;;7.00;99.90;;;;;;5074410;28;20044;-74
2023/04/13 00:47:16;;;;;;;1999.90;999.90;;;7.00;99.90;;;;;;5074531;28;20433;-75
2023/04/13 00:49:42;;;;;;;1999.90;999.90;;;7.00;99.90;;;;;;5056117;28;20128;-74
2023/04/13 00:52:10;;;;;;;1999.90;999.90;;;7.00;99.90;;;;;;5073710;28;20087;-74
2023/04/13 00:54:37;;;;;;;1999.90;999.90;;;7.00;99.90;;;;;;5074321;28;20033;-74
2023/04/13 00:57:04;;;;;;;1999.90;999.90;;;7.00;99.90;;;;;;5074602;28;20025;-74
2023/04/13 00:59:30;;;;;;;1999.90;999.90;;;6.90;99.90;;;;;;5056180;28;20037;-74
2023/04/13 01:01:55;;;;;;;1999.90;999.90;;;6.80;99.90;;;;;;5074129;28;20367;-74
2023/04/13 01:04:44;;;;;;;1999.90;999.90;;;6.70;99.90;;;;;;5074267;28;20108;-75
2023/04/13 01:07:46;;;;;;;1999.90;999.90;;;6.60;99.90;;;;;;5074547;28;20033;-74
2023/04/13 01:10:25;;;;;;;1999.90;999.90;;;6.60;99.90;;;;;;5074413;28;20123;-74
2023/04/13 01:13:08;;;;;;;1999.90;999.90;;;6.50;99.90;;;;;;5074283;28;20708;-75
2023/04/13 01:15:38;;;;;;;1999.90;999.90;;;6.50;99.90;;;;;;5074101;28;20509;-74
2023/04/13 01:18:07;;;;;;;1999.90;999.90;;;6.40;99.90;;;;;;5074793;28;20033;-74
2023/04/13 01:20:36;;;;;;;1999.90;999.90;;;6.40;99.90;;;;;;5077561;28;20171;-74
2023/04/13 01:23:10;;;;;;;1999.90;999.90;;;6.30;99.90;;;;;;5059239;28;20033;-74
2023/04/13 01:25:50;;;;;;;1999.90;999.90;;;6.40;99.90;;;;;;5077300;28;20032;-74
2023/04/13 01:28:18;;;;;;;1999.90;999.90;;;6.50;99.90;;;;;;5077782;28;20766;-74
2023/04/13 01:30:45;;;;;;;1999.90;999.90;;;6.50;99.90;;;;;;5077430;28;20044;-74
2023/04/13 01:33:11;;;;;;;1999.90;999.90;;;6.60;99.90;;;;;;5077483;28;20124;-74
2023/04/13 01:35:37;;;;;;;1999.90;999.90;;;6.60;99.90;;;;;;5077355;28;20163;-74
2023/04/13 01:38:05;;;;;;;1999.90;999.90;;;6.70;99.90;;;;;;5059118;28;20029;-74
2023/04/13 01:40:33;;;;;;;1999.90;999.90;;;6.70;99.90;;;;;;5059113;28;20044;-74
2023/04/13 01:42:59;;;;;;;1999.90;999.90;;;6.80;99.90;;;;;;5058998;28;20040;-74
2023/04/13 01:45:28;;;;;;;1999.90;999.90;;;6.90;99.90;;;;;;5077115;28;20490;-74
2023/04/13 01:48:21;;;;;;;1999.90;999.90;;;6.90;99.90;;;;;;5077298;28;20025;-74
2023/04/13 01:51:10;;;;;;;1999.90;999.90;;;7.00;99.90;;;;;;5076862;28;20204;-74
2023/04/13 01:53:41;;;;;;;1999.90;999.90;;;7.00;99.90;;;;;;5076910;28;20071;-74
2023/04/13 01:56:08;;;;;;;1999.90;999.90;;;7.00;99.90;;;;;;5077023;28;20068;-74
2023/04/13 01:58:35;;;;;;;1999.90;999.90;;;7.10;99.90;;;;;;5077151;28;20029;-75
2023/04/13 02:01:05;;;;;;;1999.90;999.90;;;7.00;99.90;;;;;;5058563;28;20099;-74
2023/04/13 02:03:30;;;;;;;1999.90;999.90;;;6.90;99.90;;;;;;5058798;28;20041;-75
2023/04/13 02:05:56;;;;;;;1999.90;999.90;;;6.70;99.90;;;;;;5076885;28;20033;-74
2023/04/13 02:08:21;;;;;;;1999.90;999.90;;;6.60;99.90;;;;;;5077019;28;20040;-75
2023/04/13 02:10:47;;;;;;;1999.90;999.90;;;6.50;99.90;;;;;;5076877;28;20457;-75
2023/04/13 02:13:13;;;;;;;1999.90;999.90;;;6.50;99.90;;;;;;5076976;28;20108;-74
2023/04/13 02:15:40;;;;;;;1999.90;999.90;;;6.50;99.90;;;;;;5076263;28;20036;-74
2023/04/13 02:18:06;;;;;;;1999.90;999.90;;;6.60;99.90;;;;;;5058448;28;20119;-74
2023/04/13 02:20:44;;;;;;;1999.90;999.90;;;6.60;99.90;;;;;;5076882;28;20037;-74
2023/04/13 02:23:13;;;;;;;1999.90;999.90;;;6.60;99.90;;;;;;5076970;28;20083;-74
2023/04/13 02:25:40;;;;;;;1999.90;999.90;;;6.60;99.90;;;;;;5076285;28;20040;-75
2023/04/13 02:28:07;;;;;;;1999.90;999.90;;;6.50;99.90;;;;;;5058298;28;20380;-75
2023/04/13 02:30:33;;;;;;;1999.90;999.90;;;6.50;99.90;;;;;;5075702;28;20045;-74
2023/04/13 02:32:59;;;;;;;1999.90;999.90;;;6.40;99.90;;;;;;5076361;28;20041;-74
2023/04/13 02:35:24;;;;;;;1999.90;999.90;;;6.60;99.90;;;;;;5075817;28;20395;-74
2023/04/13 02:37:50;;;;;;;1999.90;999.90;;;6.70;99.90;;;;;;5076573;28;20032;-74
2023/04/13 02:40:16;;;;;;;1999.90;999.90;;;6.80;99.90;;;;;;5076595;28;20087;-74
2023/04/13 02:42:42;;;;;;;1999.90;999.90;;;6.80;99.90;;;;;;5057847;28;20116;-74
2023/04/13 02:45:12;;;;;;;1999.90;999.90;;;6.80;99.90;;;;;;5076258;28;20039;-74
2023/04/13 02:47:39;;;;;;;1999.90;999.90;;;6.80;99.90;;;;;;5076372;28;20048;-74
2023/04/13 02:50:05;;;;;;;1999.90;999.90;;;6.70;99.90;;;;;;5076493;28;20037;-74
2023/04/13 02:52:31;;;;;;;1999.90;999.90;;;6.70;99.90;;;;;;5076119;28;20037;-74
2023/04/13 02:54:57;;;;;;;1999.90;999.90;;;6.70;99.90;;;;;;5076002;28;20036;-74
2023/04/13 02:57:23;;;;;;;1999.90;999.90;;;6.70;99.90;;;;;;5075900;28;20061;-74
2023/04/13 02:59:50;;;;;;;1999.90;999.90;;;6.80;99.90;;;;;;5076201;28;20491;-74
2023/04/13 03:02:16;;;;;;;1999.90;999.90;;;6.90;99.90;;;;;;5057556;28;20087;-74
2023/04/13 03:04:42;;;;;;;1999.90;999.90;;;6.90;99.90;;;;;;5075947;28;20434;-74
2023/04/13 03:07:09;;;;;;;1999.90;999.90;;;6.90;99.90;;;;;;5076160;28;20029;-74
2023/04/13 03:09:39;;;;;;;1999.90;999.90;;;6.90;99.90;;;;;;5075952;28;20036;-74
2023/04/13 03:12:08;;;;;;;1999.90;999.90;;;6.90;99.90;;;;;;5075898;28;20031;-74
2023/04/13 03:14:35;;;;;;;1999.90;999.90;;;6.90;99.90;;;;;;5075670;28;20533;-74
2023/04/13 03:17:01;;;;;;;1999.90;999.90;;;6.90;99.90;;;;;;5075968;28;20479;-74
2023/04/13 03:19:27;;;;;;;1999.90;999.90;;;6.80;99.90;;;;;;5076015;28;20828;-74
2023/04/13 03:21:53;;;;;;;1999.90;999.90;;;6.90;99.90;;;;;;5076202;28;20029;-74
2023/04/13 03:24:19;;;;;;;1999.90;999.90;;;6.90;99.90;;;;;;5075566;28;20067;-74
2023/04/13 03:26:45;;;;;;;1999.90;999.90;;;6.90;99.90;;;;;;5057640;28;20492;-74
2023/04/13 03:29:11;;;;;;;1999.90;999.90;;;6.90;99.90;;;;;;5075720;28;20034;-74
2023/04/13 03:31:36;;;;;;;1999.90;999.90;;;6.90;99.90;;;;;;5057134;28;20490;-74
2023/04/13 03:34:02;;;;;;;1999.90;999.90;;;6.90;99.90;;;;;;5075248;28;20021;-74
2023/04/13 03:36:27;;;;;;;1999.90;999.90;;;7.00;99.90;;;;;;5075466;28;20051;-74
2023/04/13 03:38:53;;;;;;;1999.90;999.90;;;7.00;99.90;;;;;;5075489;28;20482;-74
2023/04/13 03:41:19;;;;;;;1999.90;999.90;;;6.90;99.90;;;;;;5075232;28;20037;-74
2023/04/13 03:43:44;;;;;;;1999.90;999.90;;;6.90;99.90;;;;;;5075050;28;22055;-74
2023/04/13 03:46:12;;;;;;;1999.90;999.90;;;6.90;99.90;;;;;;5075396;28;20069;-74
2023/04/13 03:48:38;;;;;;;1999.90;999.90;;;6.90;99.90;;;;;;5075404;28;20036;-74
2023/04/13 03:51:05;;;;;;;1999.90;999.90;;;6.90;99.90;;;;;;5075011;28;20052;-74
2023/04/13 03:53:31;;;;;;;1999.90;999.90;;;6.90;99.90;;;;;;5074967;28;20090;-75
2023/04/13 03:55:57;;;;;;;1999.90;999.90;;;6.90;99.90;;;;;;5075023;28;20025;-74
2023/04/13 03:58:22;;;;;;;1999.90;999.90;;;6.90;99.90;;;;;;5056879;28;20028;-74
2023/04/13 04:00:48;;;;;;;1999.90;999.90;;;6.90;99.90;;;;;;5075109;28;20032;-74
2023/04/13 04:03:16;;;;;;;1999.90;999.90;;;7.00;99.90;;;;;;5075220;28;20025;-74
2023/04/13 04:05:42;;;;;;;1999.90;999.90;;;7.00;99.90;;;;;;5074814;28;20063;-74
2023/04/13 04:08:07;;;;;;;1999.90;999.90;;;6.90;99.90;;;;;;5075049;28;20099;-74
2023/04/13 04:10:33;;;;;;;1999.90;999.90;;;6.90;99.90;;;;;;5074885;28;20051;-74
2023/04/13 04:12:59;;;;;;;1999.90;999.90;;;7.00;99.90;;;;;;5074736;28;20061;-74
2023/04/13 04:15:24;;;;;;;1999.90;999.90;;;6.90;99.90;;;;;;5074705;28;20041;-74
2023/04/13 04:17:50;;;;;;;1999.90;999.90;;;6.90;99.90;;;;;;5075080;28;20032;-74
2023/04/13 04:20:16;;;;;;;1999.90;999.90;;;6.90;99.90;;;;;;5074933;28;20082;-74
2023/04/13 04:22:43;;;;;;;1999.90;999.90;;;6.90;99.90;;;;;;5074451;28;20032;-75
2023/04/13 04:25:09;;;;;;;1999.90;999.90;;;6.90;99.90;;;;;;5074438;28;20036;-75
2023/04/13 04:27:37;;;;;;;1999.90;999.90;;;6.90;99.90;;;;;;5074543;28;20033;-75
2023/04/13 04:30:06;;;;;;;1999.90;999.90;;;6.90;99.90;;;;;;5074829;28;20132;-74
2023/04/13 04:32:35;;;;;;;1999.90;999.90;;;6.80;99.90;;;;;;5074366;28;20025;-74
2023/04/13 04:35:03;;;;;;;1999.90;999.90;;;6.80;99.90;;;;;;5074415;28;20055;-74
2023/04/13 04:37:36;;;;;;;1999.90;999.90;;;6.80;99.90;;;;;;5075663;28;20025;-74
2023/04/13 04:40:08;;;;;;;1999.90;999.90;;;6.80;99.90;;;;;;5074352;28;20072;-74
2023/04/13 04:42:37;;;;;;;1999.90;999.90;;;6.80;99.90;;;;;;5074608;28;20040;-78
2023/04/13 04:45:07;;;;;;;1999.90;999.90;;;6.80;99.90;;;;;;5056808;28;20116;-76
2023/04/13 04:47:40;;;;;;;1999.90;999.90;;;6.90;99.90;;;;;;5074975;28;20029;-75
2023/04/13 04:50:08;;;;;;;1999.90;999.90;;;6.90;99.90;;;;;;5074332;28;20515;-76
2023/04/13 04:52:34;;;;;;;1999.90;999.90;;;6.90;99.90;;;;;;5073629;28;20039;-75
2023/04/13 04:54:59;;;;;;;1999.90;999.90;;;6.80;99.90;;;;;;5055997;28;20055;-75
2023/04/13 04:57:25;;;;;;;1999.90;999.90;;;6.90;99.90;;;;;;5074326;28;20119;-75
2023/04/13 04:59:50;;;;;;;1999.90;999.90;;;6.90;99.90;;;;;;5074432;28;20542;-75
2023/04/13 05:02:16;;;;;;;1999.90;999.90;;;6.90;99.90;;;;;;5074421;28;20033;-75
2023/04/13 05:04:41;;;;;;;1999.90;999.90;;;6.90;99.90;;;;;;5055653;28;20049;-75
2023/04/13 05:07:08;;;;;;;1999.90;999.90;;;6.90;99.90;;;;;;5074392;28;20025;-75
2023/04/13 05:09:33;;;;;;;1999.90;999.90;;;6.90;99.90;;;;;;5074376;28;20045;-75
2023/04/13 05:11:59;;;;;;;1999.90;999.90;;;6.90;99.90;;;;;;5074320;28;20063;-75
2023/04/13 05:14:25;;;;;;;1999.90;999.90;;;6.90;99.90;;;;;;5074170;28;20029;-75
2023/04/13 05:16:50;;;;;;;1999.90;999.90;;;6.90;99.90;;;;;;5074416;28;20368;-75
2023/04/13 05:19:16;;;;;;;1999.90;999.90;;;6.90;99.90;;;;;;5074060;28;20061;-75
2023/04/13 05:21:41;;;;;;;1999.90;999.90;;;6.90;99.90;;;;;;5073829;28;20119;-77
2023/04/13 05:24:07;;;;;;;1999.90;999.90;;;6.90;99.90;;;;;;5056669;28;20113;-77
2023/04/13 05:26:33;;;;;;;1999.90;999.90;;;6.90;99.90;;;;;;5074467;28;20064;-77
2023/04/13 05:28:59;;;;;;;1999.90;999.90;;;6.90;99.90;;;;;;5056941;28;20037;-74
2023/04/13 05:31:24;;;;;;;1999.90;999.90;;;6.90;99.90;;;;;;5074192;28;20045;-76
2023/04/13 05:33:50;;;;;;;1999.90;999.90;;;7.00;99.90;;;;;;5056123;28;20083;-77
2023/04/13 05:36:16;;;;;;;1999.90;999.90;;;7.10;99.90;;;;;;5074990;28;20033;-76
2023/04/13 05:38:42;;;;;;;1999.90;999.90;;;7.10;99.90;;;;;;5074326;28;20115;-76
2023/04/13 05:41:09;;;;;;;1999.90;999.90;;;7.10;99.90;;;;;;5073960;28;20040;-76
2023/04/13 05:43:34;;;;;;;1999.90;999.90;;;7.20;99.90;;;;;;5074316;28;20151;-77
2023/04/13 05:46:00;;;;;;;1999.90;999.90;;;7.20;99.90;;;;;;5055583;28;20116;-77
2023/04/13 05:48:26;;;;;;;1999.90;999.90;;;7.30;99.90;;;;;;5073845;28;20029;-77
2023/04/13 05:50:58;;;;;;;1999.90;999.90;;;7.30;99.90;;;;;;5072802;28;20522;-76
2023/04/13 05:53:24;;;;;;;1999.90;999.90;;;7.30;99.90;;;;;;5072373;28;20063;-76
2023/04/13 05:55:50;;;;;;;1999.90;999.90;;;7.30;99.90;;;;;;5073659;28;20044;-76
2023/04/13 05:58:17;;;;;;;1999.90;999.90;;;7.30;99.90;;;;;;5074065;28;20036;-76
2023/04/13 06:00:43;;;;;;;1999.90;999.90;;;7.30;99.90;;;;;;5073361;28;20032;-76
2023/04/13 06:03:09;;;;;;;1999.90;999.90;;;7.30;99.90;;;;;;5071335;28;20033;-75
2023/04/13 06:05:36;;;;;;;1999.90;999.90;;;7.30;99.90;;;;;;5075245;28;20033;-80
2023/04/13 06:08:02;;;;;;;1999.90;999.90;;;7.30;99.90;;;;;;5077575;28;20145;-77
2023/04/13 06:10:27;;;;;;;1999.90;999.90;;;7.40;99.90;;;;;;5052541;28;20118;-77
2023/04/13 06:12:53;;;;;;;1999.90;999.90;;;7.50;99.90;;;;;;5072946;28;20029;-77
2023/04/13 06:15:19;;;;;;;1999.90;999.90;;;7.60;99.90;;;;;;5076193;28;20510;-77
2023/04/13 06:17:45;;;;;;;1999.90;999.90;;;7.70;99.90;;;;;;5058455;28;20035;-77
2023/04/13 06:20:11;;;;;;;1999.90;999.90;;;7.80;99.90;;;;;;5076958;28;20115;-77
2023/04/13 06:22:37;;;;;;;1999.90;999.90;;;7.90;99.90;;;;;;5070956;28;20029;-77
2023/04/13 06:25:03;;;;;;;1999.90;999.90;;;8.10;99.90;;;;;;5066019;28;20041;-77
2023/04/13 06:27:28;;;;;;;1999.90;999.90;;;8.10;99.90;;;;;;5070041;28;20052;-77
2023/04/13 06:29:55;;;;;;;1999.90;999.90;;;8.10;99.90;;;;;;5076751;28;20041;-77
2023/04/13 06:32:21;;;;;;;1999.90;999.90;;;8.10;99.90;;;;;;5076366;28;20029;-77
2023/04/13 06:34:46;;;;;;;1999.90;999.90;;;8.10;99.90;;;;;;5076170;28;20175;-77
2023/04/13 06:37:12;;;;;;;1999.90;999.90;;;8.10;99.90;;;;;;5058195;28;20490;-77
2023/04/13 06:39:37;;;;;;;1999.90;999.90;;;8.10;99.90;;;;;;5076568;28;20104;-77
2023/04/13 06:42:03;;;;;;;1999.90;999.90;;;8.10;99.90;;;;;;5057807;28;20040;-78
2023/04/13 06:44:29;;;;;;;1999.90;999.90;;;8.10;99.90;;;;;;5057894;28;20103;-77
2023/04/13 06:46:55;;;;;;;1999.90;999.90;;;8.10;99.90;;;;;;5058139;28;20091;-77
2023/04/13 06:49:21;;;;;;;1999.90;999.90;;;8.20;99.90;;;;;;5083382;28;20068;-76
2023/04/13 06:51:46;;;;;;;1999.90;999.90;;;8.30;99.90;;;;;;5058581;28;20041;-77
2023/04/13 06:54:12;;;;;;;1999.90;999.90;;;8.20;99.90;;;;;;5057894;28;20029;-77
2023/04/13 06:56:38;;;;;;;1999.90;999.90;;;8.40;99.90;;;;;;5076577;28;20116;-77
2023/04/13 06:59:04;;;;;;;1999.90;999.90;;;8.40;99.90;;;;;;5076074;28;20029;-77
2023/04/13 07:01:30;;;;;;;1999.90;999.90;;;8.50;99.90;;;;;;5075694;28;20029;-77
2023/04/13 07:03:55;;;;;;;1999.90;999.90;;;8.50;99.90;;;;;;5075866;28;20033;-77
2023/04/13 07:06:21;;;;;;;1999.90;999.90;;;8.50;99.90;;;;;;5076102;28;20037;-77
2023/04/13 07:08:48;;;;;;;1999.90;999.90;;;8.50;99.90;;;;;;5075839;28;20044;-77
2023/04/13 07:11:13;;;;;;;1999.90;999.90;;;8.60;99.90;;;;;;5075902;28;20033;-77
2023/04/13 07:13:39;;;;;;;1999.90;999.90;;;8.80;99.90;;;;;;5075874;28;20033;-77
2023/04/13 07:16:10;;;;;;;1999.90;999.90;;;8.90;99.90;;;;;;5075322;28;20123;-77
2023/04/13 07:18:36;;;;;;;1999.90;999.90;;;8.90;99.90;;;;;;5057105;28;20072;-78
2023/04/13 07:21:02;;;;;;;1999.90;999.90;;;8.80;99.90;;;;;;5075905;28;20083;-77
2023/04/13 07:23:28;;;;;;;1999.90;999.90;;;8.80;99.90;;;;;;5065215;28;20040;-77
2023/04/13 07:25:53;;;;;;;1999.90;999.90;;;8.80;99.90;;;;;;5037336;28;20105;-77
2023/04/13 07:28:19;;;;;;;1999.90;999.90;;;9.10;99.90;;;;;;5037576;28;20064;-77
2023/04/13 07:30:45;;;;;;;1999.90;999.90;;;9.60;99.90;;;;;;5055313;28;20045;-77
2023/04/13 07:33:11;;;;;;;1999.90;999.90;;;10.00;99.90;;;;;;5066866;28;20028;-77
2023/04/13 07:35:37;;;;;;;1999.90;999.90;;;10.30;99.90;;;;;;5066946;28;20096;-77
2023/04/13 07:38:03;;;;;;;1999.90;999.90;;;10.70;99.90;;;;;;5074273;28;20040;-78
2023/04/13 07:40:29;;;;;;;1999.90;999.90;;;10.80;99.90;;;;;;5057300;28;20482;-78
2023/04/13 07:42:55;;;;;;;1999.90;999.90;;;10.50;99.90;;;;;;5075635;28;20033;-78
2023/04/13 07:45:21;;;;;;;1999.90;999.90;;;10.40;99.90;;;;;;5057361;28;20060;-77
2023/04/13 07:47:47;;;;;;;1999.90;999.90;;;10.60;99.90;;;;;;5057114;28;20115;-78
2023/04/13 07:50:13;;;;;;;1999.90;999.90;;;10.80;99.90;;;;;;5075509;28;20483;-78
2023/04/13 07:52:39;;;;;;;1999.90;999.90;;;10.80;99.90;;;;;;5075139;28;20037;-78
2023/04/13 07:55:05;;;;;;;1999.90;999.90;;;10.80;99.90;;;;;;5074958;28;20037;-78
2023/04/13 07:57:31;;;;;;;1999.90;999.90;;;10.70;99.90;;;;;;5058963;28;20514;-77
2023/04/13 07:59:57;;;;;;;1999.90;999.90;;;10.90;99.90;;;;;;5051985;28;20120;-78
2023/04/13 08:02:22;;;;;;;1999.90;999.90;;;10.80;99.90;;;;;;5075300;28;20029;-77
2023/04/13 08:04:48;;;;;;;1999.90;999.90;;;10.50;99.90;;;;;;5056853;28;20727;-77
2023/04/13 08:07:13;;;;;;;1999.90;999.90;;;10.40;99.90;;;;;;5060022;28;20041;-77
2023/04/13 08:09:41;;;;;;;1999.90;999.90;;;10.30;99.90;;;;;;5054965;28;20038;-77
2023/04/13 08:12:07;;;;;;;1999.90;999.90;;;10.30;99.90;;;;;;5036787;28;20487;-77
2023/04/13 08:14:33;;;;;;;1999.90;999.90;;;10.40;99.90;;;;;;5054628;28;20041;-78
2023/04/13 08:17:00;;;;;;;1999.90;999.90;;;10.50;99.90;;;;;;5054912;28;20036;-77
2023/04/13 08:19:26;;;;;;;1999.90;999.90;;;10.60;99.90;;;;;;5054782;28;20159;-77
2023/04/13 08:21:52;;;;;;;1999.90;999.90;;;10.60;99.90;;;;;;5060847;28;20029;-78
2023/04/13 08:24:19;;;;;;;1999.90;999.90;;;10.80;99.90;;;;;;5074887;28;20048;-77
2023/04/13 08:26:45;;;;;;;1999.90;999.90;;;11.00;99.90;;;;;;5075022;28;20494;-84
2023/04/13 08:29:12;;;;;;;1999.90;999.90;;;11.30;99.90;;;;;;5039930;28;20037;-79
2023/04/13 08:31:39;;;;;;;1999.90;999.90;;;11.50;99.90;;;;;;5064876;28;20099;-81
2023/04/13 08:34:05;;;;;;;1999.90;999.90;;;11.40;99.90;;;;;;5054715;28;20125;-76
2023/04/13 08:36:30;;;;;;;1999.90;999.90;;;11.40;99.90;;;;;;5054260;28;20037;-76
2023/04/13 08:38:56;;;;;;;1999.90;999.90;;;11.20;99.90;;;;;;5054466;28;20464;-77
2023/04/13 08:41:23;;;;;;;1999.90;999.90;;;11.20;99.90;;;;;;5054248;28;20033;-77
2023/04/13 08:43:49;;;;;;;1999.90;999.90;;;11.30;99.90;;;;;;5069143;28;20053;-76
2023/04/13 08:46:21;;;;;;;1999.90;999.90;;;11.40;99.90;;;;;;5074502;28;20037;-75
2023/04/13 08:48:52;;;;;;;1999.90;999.90;;;11.60;99.90;;;;;;5058033;28;20060;-77
2023/04/13 08:51:21;;;;;;;1999.90;999.90;;;11.50;99.90;;;;;;5054540;28;20045;-75
2023/04/13 08:53:52;;;;;;;1999.90;999.90;;;11.30;99.90;;;;;;5050013;28;20112;-76
2023/04/13 08:56:19;;;;;;;1999.90;999.90;;;11.30;99.90;;;;;;5056719;28;20502;-76
2023/04/13 08:58:47;;;;;;;1999.90;999.90;;;11.10;99.90;;;;;;5061065;28;20116;-76
2023/04/13 09:01:14;;;;;;;1999.90;999.90;;;11.10;99.90;;;;;;5055813;28;20040;-77
2023/04/13 09:04:07;;;;;;;1999.90;999.90;;;11.00;99.90;;;;;;5074419;28;20406;-75
2023/04/13 09:06:36;;;;;;;1999.90;999.90;;;10.90;99.90;;;;;;5074319;28;20044;-75
2023/04/13 09:09:09;;;;;;;1999.90;999.90;;;10.80;99.90;;;;;;5055991;28;20037;-76
2023/04/13 09:11:35;;;;;;;1999.90;999.90;;;10.70;99.90;;;;;;5073647;28;20477;-75
2023/04/13 09:14:01;;;;;;;1999.90;999.90;;;10.50;99.90;;;;;;5055271;28;20037;-76
2023/04/13 09:16:27;;;;;;;1999.90;999.90;;;10.40;99.90;;;;;;5073919;28;20041;-75
2023/04/13 09:18:54;;;;;;;1999.90;999.90;;;10.20;99.90;;;;;;5073683;28;20073;-75
2023/04/13 09:21:35;;;;;;;1999.90;999.90;;;10.10;99.90;;;;;;5073629;28;20462;-75
2023/04/13 09:24:00;;;;;;;1999.90;999.90;;;10.00;99.90;;;;;;5073393;28;20116;-75
2023/04/13 09:26:26;;;;;;;1999.90;999.90;;;10.00;99.90;;;;;;5055398;28;20037;-74
2023/04/13 09:28:55;;;;;;;1999.90;999.90;;;10.00;99.90;;;;;;5073780;28;20522;-75
2023/04/13 09:31:21;;;;;;;1999.90;999.90;;;10.10;99.90;;;;;;5055220;28;20034;-75
2023/04/13 09:33:49;;;;;;;1999.90;999.90;;;10.20;99.90;;;;;;5073489;28;20041;-75
2023/04/13 09:36:17;;;;;;;1999.90;999.90;;;10.30;99.90;;;;;;5073607;28;20029;-75
2023/04/13 09:38:49;;;;;;;1999.90;999.90;;;10.30;99.90;;;;;;5055563;28;20033;-75
2023/04/13 09:41:15;;;;;;;1999.90;999.90;;;10.30;99.90;;;;;;5071585;28;20033;-75
2023/04/13 09:43:40;;;;;;;1999.90;999.90;;;10.30;99.90;;;;;;5055288;28;20045;-75
2023/04/13 09:46:13;;;;;;;1999.90;999.90;;;10.40;99.90;;;;;;5075148;28;20021;-75
2023/04/13 09:48:39;;;;;;;1999.90;999.90;;;10.50;99.90;;;;;;5076962;28;20083;-75
2023/04/13 09:51:07;;;;;;;1999.90;999.90;;;10.60;99.90;;;;;;5075983;28;20052;-75
2023/04/13 09:53:44;;;;;;;1999.90;999.90;;;10.70;99.90;;;;;;5077556;28;20033;-76
2023/04/13 09:56:10;;;;;;;1999.90;999.90;;;10.80;99.90;;;;;;5077145;28;20033;-74
2023/04/13 09:58:41;;;;;;;1999.90;999.90;;;10.80;99.90;;;;;;5058116;28;20039;-76
2023/04/13 10:01:08;;;;;;;1999.90;999.90;;;10.90;99.90;;;;;;5058710;28;20123;-76
2023/04/13 10:03:36;;;;;;;1999.90;999.90;;;10.70;99.90;;;;;;5076811;28;20905;-76
2023/04/13 10:06:09;;;;;;;1999.90;999.90;;;10.80;99.90;;;;;;5058638;28;20384;-77
2023/04/13 10:08:39;;;;;;;1999.90;999.90;;;10.90;99.90;;;;;;5058888;28;20035;-76
2023/04/13 10:11:13;;;;;;;1999.90;999.90;;;10.90;99.90;;;;;;5076522;28;20033;-76
2023/04/13 10:13:55;;;;;;;1999.90;999.90;;;10.90;99.90;;;;;;5076467;28;20044;-76
2023/04/13 10:16:37;;;;;;;1999.90;999.90;;;11.00;99.90;;;;;;5077708;28;20043;-79
2023/04/13 10:19:10;;;;;;;1999.90;999.90;;;11.10;99.90;;;;;;5077107;28;20028;-76
2023/04/13 10:21:39;;;;;;;1999.90;999.90;;;11.30;99.90;;;;;;5075163;28;20029;-77
2023/04/13 10:24:07;;;;;;;1999.90;999.90;;;11.40;99.90;;;;;;5071206;28;20036;-76
2023/04/13 10:26:35;;;;;;;1999.90;999.90;;;11.20;99.70;;;;;;5075797;28;20032;-76
2023/04/13 10:29:02;;;;;;;1999.90;999.90;;;11.20;99.90;;;;;;5065527;28;20064;-75
2023/04/13 10:31:36;;;;;;;1999.90;999.90;;;11.10;99.90;;;;;;5047351;28;20067;-76
2023/04/13 10:34:02;;;;;;;1999.90;999.90;;;11.00;99.90;;;;;;5073537;28;20033;-76
2023/04/13 10:36:38;;;;;;;1999.90;999.90;;;10.80;99.90;;;;;;5068767;28;20029;-79
2023/04/13 10:39:03;;;;;;;1999.90;999.90;;;10.60;99.90;;;;;;5061750;28;20093;-81
2023/04/13 10:41:29;;;;;;;1999.90;999.90;;;10.60;99.90;;;;;;5069878;28;20915;-76
2023/04/13 10:44:02;;;;;;;1999.90;999.90;;;10.60;99.90;;;;;;5064344;28;20128;-76
2023/04/13 10:46:28;;;;;;;1999.90;999.90;;;10.60;99.90;;;;;;5059471;28;20040;-79
2023/04/13 10:48:57;;;;;;;1999.90;999.90;;;10.70;99.90;;;;;;5039930;28;20033;-77
2023/04/13 10:51:24;;;;;;;1999.90;999.90;;;10.70;99.90;;;;;;5052587;28;20046;-76
2023/04/13 10:53:50;;;;;;;1999.90;999.90;;;10.60;99.90;;;;;;5057468;28;20035;-77
2023/04/13 10:56:16;;;;;;;1999.90;999.90;;;10.50;99.90;;;;;;5077402;28;20512;-77
2023/04/13 10:58:42;;;;;;;1999.90;999.90;;;10.40;99.90;;;;;;5058273;28;20109;-76
2023/04/13 11:01:09;;;;;;;1999.90;999.90;;;10.50;99.90;;;;;;5077584;28;20123;-76
2023/04/13 11:03:46;;;;;;;1999.90;999.90;;;10.60;99.90;;;;;;5059759;28;20037;-77
2023/04/13 11:06:13;;;;;;;1999.90;999.90;;;10.60;99.90;;;;;;5054492;28;21509;-75
2023/04/13 11:08:41;;;;;;;1999.90;999.90;;;10.70;99.90;;;;;;5088873;28;20060;-76
2023/04/13 11:11:06;;;;;;;1999.90;999.90;;;10.60;99.90;;;;;;5056996;28;20555;-77
2023/04/13 11:13:32;;;;;;;1999.90;999.90;;;10.60;99.90;;;;;;5075639;28;20041;-77
2023/04/13 11:16:04;;;;;;;1999.90;999.90;;;10.60;99.90;;;;;;5057492;28;20112;-77
2023/04/13 11:18:30;;;;;;;1999.90;999.90;;;10.90;99.90;;;;;;5074532;28;20059;-77
2023/04/13 11:20:56;;;;;;;1999.90;999.90;;;10.70;99.90;;;;;;5057453;28;20070;-77
2023/04/13 11:23:24;;;;;;;1999.90;999.90;;;10.90;99.90;;;;;;5076422;28;20553;-77
2023/04/13 11:26:00;;;;;;;1999.90;999.90;;;10.80;99.90;;;;;;5075774;28;20116;-77
2023/04/13 11:28:42;;;;;;;1999.90;999.90;;;10.80;99.90;;;;;;5058631;28;20041;-77
2023/04/13 11:31:08;;;;;;;1999.90;999.90;;;10.80;99.90;;;;;;5064383;28;20605;-76
2023/04/13 11:33:34;;;;;;;1999.90;999.90;;;11.00;99.90;;;;;;5073907;28;20108;-77
2023/04/13 11:36:01;;;;;;;1999.90;999.90;;;11.20;99.90;;;;;;5075092;28;20043;-80
2023/04/13 11:38:27;;;;;;;1999.90;999.90;;;11.60;99.90;;;;;;5057076;28;20446;-77
2023/04/13 11:41:02;;;;;;;1999.90;999.90;;;12.20;99.90;;;;;;5075346;28;20511;-77
2023/04/13 11:43:28;;;;;;;1999.90;999.90;;;12.30;99.90;;;;;;5075718;28;20037;-76
2023/04/13 11:45:54;;;;;;;1999.90;999.90;;;12.10;99.90;;;;;;5076120;28;20047;-77
2023/04/13 11:48:20;;;;;;;1999.90;999.90;;;12.10;99.90;;;;;;5077381;28;20447;-77
2023/04/13 11:50:48;;;;;;;1999.90;999.90;;;12.20;99.90;;;;;;5077112;28;20514;-77
2023/04/13 11:53:14;;;;;;;1999.90;999.90;;;12.70;99.90;;;;;;5056136;28;20034;-78
2023/04/13 11:55:40;;;;;;;1999.90;999.90;;;12.90;99.50;;;;;;5076279;28;20112;-78
2023/04/13 11:58:14;;;;;;;1999.90;999.90;;;13.20;98.50;;;;;;5059853;28;20108;-78
2023/04/13 12:00:40;;;;;;;1999.90;999.90;;;13.80;98.00;;;;;;5077502;28;20091;-78
2023/04/13 12:03:18;;;;;;;1999.90;999.90;;;13.80;97.50;;;;;;5078189;28;20039;-78
2023/04/13 12:05:46;;;;;;;1999.90;999.90;;;13.70;98.10;;;;;;5076358;28;20040;-79